Time;durP1;ratioP1;P1;durP2;ratioP2;P2;SDS_P1;SDS_P2;PMS_P1;PMS_P2;Temp;Humidity;BMP_temperature;BMP_pressure;BME280_temperature;BME280_humidity;BME280_pressure;Samples;Min_cycle;Max_cycle;Signal;HPM_P1;HPM_P2
2023/03/05 00:01:09;;;;;;;9.98;3.05;;;;;;;3.82;99.48;102250.50;5077533;28;20045;-75
2023/03/05 00:03:34;;;;;;;9.60;2.90;;;;;;;3.81;99.62;102256.50;5092375;28;20483;-75
2023/03/05 00:06:00;;;;;;;8.90;2.47;;;;;;;3.80;100.00;102251.34;5093114;28;20028;-75
2023/03/05 00:08:26;;;;;;;7.97;2.67;;;;;;;3.70;99.81;102240.75;5092181;28;20024;-75
2023/03/05 00:11:03;;;;;;;10.50;3.05;;;;;;;3.74;100.00;102242.56;5083813;28;20031;-75
2023/03/05 00:13:29;;;;;;;11.82;4.30;;;;;;;3.77;100.00;102257.28;5087615;28;20082;-75
2023/03/05 00:15:57;;;;;;;11.93;2.88;;;;;;;3.77;100.00;102259.84;5081289;28;20028;-75
2023/03/05 00:18:23;;;;;;;13.60;3.13;;;;;;;3.70;100.00;102239.88;5089325;28;20023;-76
2023/03/05 00:20:51;;;;;;;10.02;2.97;;;;;;;3.72;100.00;102243.38;5085096;28;20047;-75
2023/03/05 00:23:16;;;;;;;11.10;2.70;;;;;;;3.77;100.00;102256.41;5091947;28;20111;-75
2023/03/05 00:25:42;;;;;;;11.35;2.60;;;;;;;3.74;100.00;102247.75;5092214;28;20464;-75
2023/03/05 00:28:07;;;;;;;10.52;3.30;;;;;;;3.65;100.00;102244.91;5092806;28;20031;-75
2023/03/05 00:30:34;;;;;;;8.55;2.85;;;;;;;3.69;100.00;102249.31;5088434;28;20348;-75
2023/03/05 00:32:59;;;;;;;9.05;2.75;;;;;;;3.63;100.00;102230.22;5092629;28;20028;-75
2023/03/05 00:35:25;;;;;;;9.27;2.55;;;;;;;3.68;100.00;102242.41;5077155;28;20013;-75
2023/03/05 00:37:50;;;;;;;11.02;2.75;;;;;;;3.67;100.00;102237.22;5080892;28;20446;-75
2023/03/05 00:40:16;;;;;;;11.68;2.90;;;;;;;3.57;100.00;102227.50;5077900;28;20036;-75
2023/03/05 00:42:41;;;;;;;10.98;3.22;;;;;;;3.61;100.00;102229.31;5071993;28;20034;-75
2023/03/05 00:45:08;;;;;;;10.25;2.72;;;;;;;3.59;100.00;102223.22;5079320;28;20028;-75
2023/03/05 00:47:34;;;;;;;8.80;2.60;;;;;;;3.58;100.00;102229.22;5076935;28;20148;-75
2023/03/05 00:49:59;;;;;;;12.23;3.33;;;;;;;3.57;100.00;102218.06;5075768;28;20028;-75
2023/03/05 00:52:25;;;;;;;14.75;3.28;;;;;;;3.60;100.00;102220.72;5079641;28;20021;-75
2023/03/05 00:54:50;;;;;;;15.27;3.40;;;;;;;3.56;100.00;102218.00;5086074;28;20021;-75
2023/03/05 00:57:15;;;;;;;10.82;3.10;;;;;;;3.51;100.00;102207.56;5082427;28;20482;-75
2023/03/05 00:59:41;;;;;;;10.77;3.17;;;;;;;3.49;100.00;102199.78;5091523;28;20076;-75
2023/03/05 01:02:06;;;;;;;16.83;3.58;;;;;;;3.56;100.00;102213.69;5092355;28;20031;-75
2023/03/05 01:04:31;;;;;;;14.95;3.25;;;;;;;3.54;100.00;102212.81;5083996;28;20099;-75
2023/03/05 01:06:57;;;;;;;15.45;3.75;;;;;;;3.50;100.00;102200.66;5092564;28;20073;-75
2023/03/05 01:09:24;;;;;;;13.07;3.05;;;;;;;3.40;100.00;102194.38;5080554;28;20417;-75
2023/03/05 01:11:53;;;;;;;19.90;3.33;;;;;;;3.47;100.00;102204.03;5092458;28;20406;-75
2023/03/05 01:14:20;;;;;;;11.57;3.20;;;;;;;3.49;100.00;102198.91;5095818;28;20479;-75
2023/03/05 01:16:45;;;;;;;13.85;3.58;;;;;;;3.51;100.00;102198.13;5095542;28;20020;-75
2023/03/05 01:19:13;;;;;;;16.55;4.30;;;;;;;3.51;100.00;102200.69;5095247;28;20020;-75
2023/03/05 01:21:38;;;;;;;8.52;2.88;;;;;;;3.46;100.00;102188.50;5088013;28;20115;-75
2023/03/05 01:24:04;;;;;;;14.30;3.85;;;;;;;3.52;100.00;102193.84;5095957;28;20104;-75
2023/03/05 01:26:29;;;;;;;6.75;3.22;;;;;;;3.50;100.00;102182.63;5094865;28;20475;-75
2023/03/05 01:28:55;;;;;;;9.27;3.03;;;;;;;3.52;100.00;102184.38;5095451;28;20035;-75
2023/03/05 01:31:21;;;;;;;12.27;2.90;;;;;;;3.38;100.00;102164.22;5095790;28;20051;-75
2023/03/05 01:33:46;;;;;;;12.48;3.75;;;;;;;3.41;100.00;102172.06;5094336;28;20356;-75
2023/03/05 01:36:15;;;;;;;15.10;3.75;;;;;;;3.36;100.00;102169.34;5095552;28;20021;-75
2023/03/05 01:38:41;;;;;;;12.63;2.78;;;;;;;3.35;100.00;102179.63;5087328;28;20025;-75
2023/03/05 01:41:08;;;;;;;8.48;3.03;;;;;;;3.32;100.00;102175.25;5080950;28;20008;-75
2023/03/05 01:43:33;;;;;;;9.00;2.80;;;;;;;3.29;100.00;102173.44;5095255;28;20036;-75
2023/03/05 01:46:23;;;;;;;9.70;3.20;;;;;;;3.29;100.00;102165.72;5083740;28;20770;-75
2023/03/05 01:48:53;;;;;;;11.55;3.33;;;;;;;3.22;100.00;102152.63;5095104;28;20032;-75
2023/03/05 01:51:24;;;;;;;11.60;3.20;;;;;;;3.17;100.00;102146.47;5073734;28;20431;-75
2023/03/05 01:53:49;;;;;;;10.25;2.97;;;;;;;3.17;100.00;102151.63;5084438;28;20028;-75
2023/03/05 01:56:15;;;;;;;11.55;2.97;;;;;;;3.13;100.00;102148.06;5076727;28;20037;-75
2023/03/05 01:58:41;;;;;;;10.93;2.75;;;;;;;3.01;100.00;102130.59;5079235;28;20533;-75
2023/03/05 02:01:06;;;;;;;11.98;2.45;;;;;;;3.08;100.00;102138.50;5079572;28;20040;-75
2023/03/05 02:03:33;;;;;;;9.77;2.67;;;;;;;3.09;100.00;102141.09;5090086;28;20051;-75
2023/03/05 02:05:58;;;;;;;10.32;2.72;;;;;;;3.12;100.00;102132.59;5095278;28;20035;-75
2023/03/05 02:08:24;;;;;;;10.88;2.53;;;;;;;3.10;100.00;102121.34;5080666;28;20471;-75
2023/03/05 02:10:55;;;;;;;8.25;2.55;;;;;;;3.14;100.00;102126.66;5094746;28;20032;-75
2023/03/05 02:13:23;;;;;;;10.57;2.40;;;;;;;3.15;100.00;102130.09;5083504;28;20020;-75
2023/03/05 02:15:50;;;;;;;10.05;2.97;;;;;;;3.04;100.00;102098.84;5093605;28;20016;-75
2023/03/05 02:18:17;;;;;;;7.88;2.33;;;;;;;3.13;100.00;102113.72;5094695;28;20024;-75
2023/03/05 02:20:48;;;;;;;10.18;2.50;;;;;;;3.17;100.00;102120.69;5083350;28;20081;-75
2023/03/05 02:23:14;;;;;;;8.60;2.53;;;;;;;3.11;100.00;102110.25;5093437;28;20024;-75
2023/03/05 02:25:39;;;;;;;6.63;2.00;;;;;;;3.11;100.00;102102.50;5094293;28;20031;-75
2023/03/05 02:28:13;;;;;;;9.65;2.20;;;;;;;3.15;100.00;102100.03;5093875;28;20062;-75
2023/03/05 02:30:38;;;;;;;11.50;2.55;;;;;;;3.08;100.00;102095.56;5082672;28;20063;-75
2023/03/05 02:33:04;;;;;;;10.40;2.38;;;;;;;3.12;100.00;102099.09;5094479;28;20059;-75
2023/03/05 02:35:30;;;;;;;9.05;2.45;;;;;;;3.07;100.00;102096.38;5093354;28;20016;-75
2023/03/05 02:37:56;;;;;;;7.68;2.25;;;;;;;3.04;100.00;102101.44;5094644;28;20387;-75
2023/03/05 02:40:21;;;;;;;12.18;2.50;;;;;;;3.05;100.00;102105.78;5082648;28;20077;-75
2023/03/05 02:42:47;;;;;;;11.65;3.15;;;;;;;3.04;100.00;102099.75;5076488;28;20039;-75
2023/03/05 02:45:13;;;;;;;10.15;2.83;;;;;;;2.96;100.00;102087.50;5094121;28;20016;-75
2023/03/05 02:47:39;;;;;;;8.52;2.28;;;;;;;3.02;100.00;102092.81;5078758;28;20066;-75
2023/03/05 02:50:05;;;;;;;11.82;2.78;;;;;;;2.94;100.00;102082.31;5093311;28;20056;-75
2023/03/05 02:52:31;;;;;;;10.60;2.53;;;;;;;2.94;100.00;102071.09;5093729;28;20463;-75
2023/03/05 02:54:56;;;;;;;6.65;2.33;;;;;;;3.00;100.00;102084.16;5093740;28;20023;-75
2023/03/05 02:57:21;;;;;;;7.05;2.50;;;;;;;3.00;100.00;102072.16;5084985;28;20051;-75
2023/03/05 02:59:47;;;;;;;11.40;3.47;;;;;;;2.96;100.00;102066.88;5093326;28;20051;-75
2023/03/05 03:02:13;;;;;;;10.98;3.08;;;;;;;2.99;100.00;102070.41;5093784;28;20057;-75
2023/03/05 03:04:38;;;;;;;12.15;2.70;;;;;;;2.85;100.00;102052.84;5077886;28;20031;-75
2023/03/05 03:07:03;;;;;;;7.75;2.58;;;;;;;2.94;100.00;102074.59;5070458;28;20105;-75
2023/03/05 03:09:29;;;;;;;9.65;3.10;;;;;;;2.90;100.00;102056.41;5086799;28;20016;-75
2023/03/05 03:11:54;;;;;;;8.23;2.80;;;;;;;2.93;100.00;102062.50;5090149;28;20501;-75
2023/03/05 03:14:20;;;;;;;11.90;3.33;;;;;;;2.93;100.00;102056.50;5084912;28;20024;-75
2023/03/05 03:16:46;;;;;;;7.28;2.58;;;;;;;2.89;100.00;102050.38;5093201;28;20396;-75
2023/03/05 03:19:11;;;;;;;10.13;2.80;;;;;;;2.88;100.00;102056.38;5092952;28;20020;-75
2023/03/05 03:21:36;;;;;;;7.90;2.67;;;;;;;2.77;100.00;102039.75;5078185;28;20408;-75
2023/03/05 03:24:02;;;;;;;11.95;3.58;;;;;;;2.78;100.00;102049.22;5091179;28;20020;-75
2023/03/05 03:26:27;;;;;;;10.32;3.40;;;;;;;2.76;100.00;102049.16;5079876;28;20459;-75
2023/03/05 03:28:53;;;;;;;7.35;2.53;;;;;;;2.75;100.00;102049.16;5071292;28;20399;-75
2023/03/05 03:31:18;;;;;;;12.02;2.92;;;;;;;2.73;100.00;102045.63;5072154;28;20036;-75
2023/03/05 03:33:44;;;;;;;13.77;3.42;;;;;;;2.64;100.00;102035.94;5071985;28;20025;-75
2023/03/05 03:36:09;;;;;;;13.77;4.30;;;;;;;2.60;100.00;102030.69;5073082;28;20066;-75
2023/03/05 03:38:35;;;;;;;9.45;3.38;;;;;;;2.55;100.00;102028.84;5071228;28;20085;-75
2023/03/05 03:41:00;;;;;;;9.82;3.15;;;;;;;2.53;100.00;102022.78;5074235;28;20119;-75
2023/03/05 03:43:25;;;;;;;8.57;2.92;;;;;;;2.46;100.00;102005.41;5072825;28;20063;-75
2023/03/05 03:45:51;;;;;;;13.63;3.60;;;;;;;2.49;100.00;102005.50;5071428;28;20035;-75
2023/03/05 03:48:16;;;;;;;7.53;3.20;;;;;;;2.51;100.00;102011.56;5072720;28;20029;-75
2023/03/05 03:50:42;;;;;;;13.43;3.53;;;;;;;2.55;100.00;102008.25;5081161;28;20012;-75
2023/03/05 03:53:08;;;;;;;11.75;3.58;;;;;;;2.54;100.00;102011.66;5071951;28;20079;-75
2023/03/05 03:55:34;;;;;;;10.30;3.58;;;;;;;2.50;100.00;102014.09;5072114;28;20062;-75
2023/03/05 03:57:59;;;;;;;16.00;4.80;;;;;;;2.45;100.00;102001.13;5072658;28;20102;-75
2023/03/05 04:00:24;;;;;;;14.65;4.55;;;;;;;2.39;100.00;101994.88;5071680;28;20051;-75
2023/03/05 04:02:50;;;;;;;10.40;4.15;;;;;;;2.44;100.00;102014.78;5071917;28;20463;-75
2023/03/05 04:05:15;;;;;;;14.23;4.50;;;;;;;2.42;100.00;102006.16;5072466;28;20113;-75
2023/03/05 04:07:40;;;;;;;10.85;4.13;;;;;;;2.43;100.00;102005.34;5070423;28;20036;-75
2023/03/05 04:10:06;;;;;;;8.38;3.75;;;;;;;2.41;100.00;102001.84;5071056;28;20025;-75
2023/03/05 04:12:31;;;;;;;9.55;3.83;;;;;;;2.30;100.00;101982.66;5068990;28;20035;-75
2023/03/05 04:14:57;;;;;;;12.85;4.60;;;;;;;2.37;100.00;101989.72;5072065;28;20034;-75
2023/03/05 04:17:22;;;;;;;17.40;4.47;;;;;;;2.38;100.00;101991.44;5072519;28;20024;-75
2023/03/05 04:19:47;;;;;;;17.05;4.78;;;;;;;2.40;100.00;101989.81;5070271;28;20487;-75
2023/03/05 04:22:14;;;;;;;10.55;4.50;;;;;;;2.40;100.00;101984.66;5071723;28;20053;-75
2023/03/05 04:24:40;;;;;;;11.45;4.55;;;;;;;2.40;100.00;101986.38;5070783;28;20029;-75
2023/03/05 04:27:06;;;;;;;15.80;5.18;;;;;;;2.21;100.00;101948.94;5069049;28;20157;-75
2023/03/05 04:29:32;;;;;;;13.43;5.00;;;;;;;2.39;100.00;101975.19;5068921;28;20361;-74
2023/03/05 04:31:57;;;;;;;11.73;5.13;;;;;;;2.39;100.00;101971.72;5072392;28;20028;-75
2023/03/05 04:34:23;;;;;;;11.82;5.88;;;;;;;2.37;100.00;101974.28;5072177;28;20024;-75
2023/03/05 04:36:48;;;;;;;11.45;5.75;;;;;;;2.34;100.00;101971.59;5071178;28;20021;-75
2023/03/05 04:39:14;;;;;;;14.13;5.82;;;;;;;2.32;100.00;101968.09;5072517;28;20020;-75
2023/03/05 04:41:39;;;;;;;15.60;5.47;;;;;;;2.19;100.00;101948.00;5070990;28;20025;-75
2023/03/05 04:44:04;;;;;;;9.52;6.22;;;;;;;2.33;100.00;101970.75;5072391;28;20021;-74
2023/03/05 04:46:29;;;;;;;14.13;6.85;;;;;;;2.31;100.00;101958.66;5075550;28;20032;-75
2023/03/05 04:48:56;;;;;;;12.90;7.00;;;;;;;2.35;100.00;101965.63;5075316;28;20554;-75
2023/03/05 04:51:22;;;;;;;17.33;7.20;;;;;;;2.38;100.00;101963.13;5081657;28;20078;-75
2023/03/05 04:53:47;;;;;;;16.95;8.05;;;;;;;2.25;100.00;101943.03;5075888;28;20024;-75
2023/03/05 04:56:12;;;;;;;16.45;7.03;;;;;;;2.29;100.00;101957.75;5075396;28;20055;-75
2023/03/05 04:58:37;;;;;;;17.48;7.30;;;;;;;2.22;100.00;101955.81;5075836;28;20029;-75
2023/03/05 05:01:04;;;;;;;15.90;7.35;;;;;;;2.19;100.00;101956.63;5075845;28;20503;-75
2023/03/05 05:03:30;;;;;;;13.38;7.75;;;;;;;2.13;100.00;101950.44;5074040;28;20037;-75
2023/03/05 05:05:57;;;;;;;15.95;7.88;;;;;;;2.07;100.00;101946.84;5075846;28;20023;-75
2023/03/05 05:08:23;;;;;;;17.13;8.63;;;;;;;2.08;100.00;101943.44;5075976;28;20020;-75
2023/03/05 05:10:57;;;;;;;14.65;7.53;;;;;;;2.09;100.00;101949.44;5074524;28;20506;-74
2023/03/05 05:13:23;;;;;;;17.65;9.07;;;;;;;2.04;100.00;101927.88;5075795;28;20108;-75
2023/03/05 05:15:48;;;;;;;18.15;8.35;;;;;;;2.11;100.00;101940.94;5075071;28;20467;-75
2023/03/05 05:18:13;;;;;;;14.35;8.25;;;;;;;2.13;100.00;101940.13;5075052;28;20052;-75
2023/03/05 05:20:39;;;;;;;18.17;8.18;;;;;;;2.16;100.00;101945.34;5074453;28;20024;-75
2023/03/05 05:23:04;;;;;;;16.45;7.38;;;;;;;2.11;100.00;101924.66;5075729;28;20032;-75
2023/03/05 05:25:29;;;;;;;13.85;7.75;;;;;;;2.14;100.00;101931.59;5074591;28;20111;-75
2023/03/05 05:27:55;;;;;;;12.75;7.85;;;;;;;2.19;100.00;101936.03;5075591;28;20024;-75
2023/03/05 05:30:20;;;;;;;17.23;8.30;;;;;;;2.10;100.00;101926.34;5075544;28;20062;-75
2023/03/05 05:32:45;;;;;;;14.75;7.75;;;;;;;2.19;100.00;101932.56;5074121;28;20521;-75
2023/03/05 05:35:11;;;;;;;15.57;7.72;;;;;;;2.19;100.00;101930.00;5075282;28;20028;-75
2023/03/05 05:37:36;;;;;;;16.77;8.23;;;;;;;2.22;100.00;101930.94;5072061;28;20410;-75
2023/03/05 05:40:03;;;;;;;13.73;8.13;;;;;;;2.12;100.00;101913.50;5074300;28;20441;-75
2023/03/05 05:42:28;;;;;;;20.92;8.30;;;;;;;2.20;100.00;101934.34;5074812;28;20035;-75
2023/03/05 05:44:54;;;;;;;18.98;8.75;;;;;;;2.13;100.00;101924.69;5074266;28;20392;-75
2023/03/05 05:47:19;;;;;;;17.52;9.10;;;;;;;2.06;100.00;101921.97;5075221;28;20035;-75
2023/03/05 05:49:45;;;;;;;16.65;9.25;;;;;;;2.08;100.00;101924.56;5077375;28;20099;-75
2023/03/05 05:52:10;;;;;;;21.27;9.65;;;;;;;2.08;100.00;101932.28;5076283;28;20766;-75
2023/03/05 05:54:36;;;;;;;22.77;10.82;;;;;;;2.05;100.00;101932.19;5074094;28;20028;-75
2023/03/05 05:57:01;;;;;;;17.20;9.55;;;;;;;2.05;100.00;101916.75;5074333;28;20031;-75
2023/03/05 05:59:26;;;;;;;19.20;9.93;;;;;;;1.98;100.00;101907.97;5073796;28;20058;-75
2023/03/05 06:01:52;;;;;;;17.15;9.32;;;;;;;2.04;100.00;101915.00;5074844;28;20031;-75
2023/03/05 06:04:17;;;;;;;19.48;9.68;;;;;;;1.99;100.00;101911.44;5074811;28;20028;-75
2023/03/05 06:06:42;;;;;;;20.40;10.30;;;;;;;1.97;100.00;101906.25;5073749;28;20538;-75
2023/03/05 06:09:07;;;;;;;18.23;10.40;;;;;;;1.97;100.00;101901.09;5074752;28;20096;-75
2023/03/05 06:11:33;;;;;;;17.27;10.20;;;;;;;1.97;100.00;101897.66;5073762;28;20021;-75
2023/03/05 06:14:01;;;;;;;16.33;9.48;;;;;;;1.97;100.00;101901.09;5074094;28;20024;-75
2023/03/05 06:16:27;;;;;;;14.65;9.90;;;;;;;1.95;100.00;101889.91;5074803;28;20032;-75
2023/03/05 06:18:52;;;;;;;15.10;9.88;;;;;;;1.94;100.00;101892.44;5074885;28;20021;-75
2023/03/05 06:21:20;;;;;;;14.50;9.50;;;;;;;1.92;100.00;101889.81;5073800;28;20016;-75
2023/03/05 06:23:46;;;;;;;15.57;9.77;;;;;;;1.92;100.00;101892.38;5074100;28;20028;-75
2023/03/05 06:26:14;;;;;;;19.38;10.60;;;;;;;1.90;100.00;101888.91;5074380;28;20020;-75
2023/03/05 06:28:40;;;;;;;19.80;10.48;;;;;;;1.89;100.00;101894.84;5072305;28;20035;-75
2023/03/05 06:31:07;;;;;;;20.05;10.45;;;;;;;1.94;100.00;101888.16;5074541;28;20028;-75
2023/03/05 06:33:33;;;;;;;16.58;9.75;;;;;;;1.98;100.00;101887.41;5074140;28;20048;-75
2023/03/05 06:36:01;;;;;;;19.70;9.68;;;;;;;1.96;100.00;101888.19;5073417;28;20356;-75
2023/03/05 06:38:26;;;;;;;17.38;9.90;;;;;;;1.96;100.00;101906.19;5073993;28;20431;-75
2023/03/05 06:40:51;;;;;;;17.48;10.02;;;;;;;1.96;100.00;101904.53;5073809;28;20020;-75
2023/03/05 06:43:17;;;;;;;18.10;9.80;;;;;;;1.96;100.00;101898.47;5073041;28;20036;-75
2023/03/05 06:45:42;;;;;;;18.77;9.52;;;;;;;1.98;100.00;101895.13;5073168;28;20033;-75
2023/03/05 06:48:07;;;;;;;19.88;10.73;;;;;;;1.98;100.00;101889.13;5073402;28;20123;-75
2023/03/05 06:50:34;;;;;;;19.08;9.05;;;;;;;2.00;100.00;101896.06;5077148;28;20017;-75
2023/03/05 06:52:59;;;;;;;14.48;9.00;;;;;;;1.99;100.00;101891.72;5073959;28;20024;-75
2023/03/05 06:55:25;;;;;;;16.88;9.50;;;;;;;1.98;100.00;101889.97;5073078;28;20047;-75
2023/03/05 06:57:53;;;;;;;17.65;8.80;;;;;;;2.00;100.00;101890.03;5074601;28;20033;-75
2023/03/05 07:00:18;;;;;;;12.75;7.88;;;;;;;2.00;100.00;101898.63;5073520;28;20048;-75
2023/03/05 07:02:44;;;;;;;15.75;8.02;;;;;;;2.01;100.00;101891.78;5071898;28;20028;-75
2023/03/05 07:05:09;;;;;;;12.60;6.95;;;;;;;1.97;100.00;101880.53;5073807;28;20047;-75
2023/03/05 07:07:35;;;;;;;11.50;7.10;;;;;;;2.04;100.00;101900.44;5072688;28;20526;-75
2023/03/05 07:10:00;;;;;;;12.55;7.07;;;;;;;1.97;100.00;101885.69;5072585;28;20108;-75
2023/03/05 07:12:28;;;;;;;13.30;7.47;;;;;;;2.04;100.00;101894.44;5073221;28;20029;-75
2023/03/05 07:14:53;;;;;;;15.63;7.20;;;;;;;2.07;100.00;101900.53;5073311;28;20375;-75
2023/03/05 07:17:19;;;;;;;10.13;7.30;;;;;;;2.13;100.00;101897.28;5072672;28;20024;-75
2023/03/05 07:19:44;;;;;;;10.45;7.00;;;;;;;2.18;100.00;101890.53;5072451;28;20029;-75
2023/03/05 07:22:09;;;;;;;12.98;6.88;;;;;;;2.26;100.00;101883.06;5073244;28;20075;-75
2023/03/05 07:24:35;;;;;;;13.40;6.60;;;;;;;2.39;100.00;101885.13;5072386;28;20099;-75
2023/03/05 07:27:00;;;;;;;14.10;6.72;;;;;;;2.47;100.00;101875.00;5073246;28;20460;-75
2023/03/05 07:29:27;;;;;;;9.52;6.10;;;;;;;2.57;100.00;101871.84;5073213;28;20028;-75
2023/03/05 07:31:53;;;;;;;13.23;6.65;;;;;;;2.68;100.00;101877.25;5072366;28;20479;-75
2023/03/05 07:34:19;;;;;;;11.48;5.50;;;;;;;2.76;100.00;101879.22;5073001;28;20093;-75
2023/03/05 07:36:45;;;;;;;10.63;6.07;;;;;;;2.86;100.00;101875.16;5072588;28;20060;-75
2023/03/05 07:39:11;;;;;;;12.35;5.20;;;;;;;2.90;100.00;101876.97;5072246;28;20058;-75
2023/03/05 07:41:37;;;;;;;9.95;5.55;;;;;;;2.94;100.00;101876.22;5072437;28;20028;-75
2023/03/05 07:44:03;;;;;;;9.75;5.35;;;;;;;3.01;100.00;101880.69;5072802;28;20479;-75
2023/03/05 07:46:31;;;;;;;11.35;5.35;;;;;;;3.08;100.00;101875.69;5071940;28;20024;-75
2023/03/05 07:48:56;;;;;;;7.80;4.70;;;;;;;3.15;100.00;101875.00;5072808;28;20494;-75
2023/03/05 07:51:24;;;;;;;9.52;5.13;;;;;;;3.22;100.00;101874.28;5075961;28;20104;-75
2023/03/05 07:53:51;;;;;;;7.50;4.50;;;;;;;3.26;100.00;101860.63;5071957;28;20025;-74
2023/03/05 07:56:30;;;;;;;11.75;4.70;;;;;;;3.35;100.00;101872.88;5072631;28;20016;-75
2023/03/05 07:58:56;;;;;;;7.55;4.00;;;;;;;3.40;100.00;101874.72;5070214;28;20056;-75
2023/03/05 08:01:21;;;;;;;5.10;3.83;;;;;;;3.50;100.00;101876.66;5071139;28;20071;-75
2023/03/05 08:03:47;;;;;;;6.95;4.20;;;;;;;3.50;100.00;101855.19;5071505;28;20036;-75
2023/03/05 08:06:12;;;;;;;8.13;4.07;;;;;;;3.60;100.00;101856.25;5071900;28;20020;-75
2023/03/05 08:08:37;;;;;;;7.85;3.70;;;;;;;3.67;100.00;101865.84;5070568;28;20028;-75
2023/03/05 08:11:12;;;;;;;4.88;2.92;;;;;;;3.54;100.00;101845.78;5070719;28;20051;-75
2023/03/05 08:13:38;;;;;;;8.50;3.55;;;;;;;3.69;100.00;101861.56;5071814;28;20032;-75
2023/03/05 08:16:10;;;;;;;6.00;3.47;;;;;;;3.66;100.00;101851.19;5072028;28;20024;-75
2023/03/05 08:18:35;;;;;;;6.63;3.33;;;;;;;3.78;100.00;101856.59;5063484;28;20032;-75
2023/03/05 08:21:01;;;;;;;6.82;3.03;;;;;;;3.83;100.00;101854.16;5068292;28;20434;-74
2023/03/05 08:23:27;;;;;;;6.38;3.38;;;;;;;3.86;100.00;101849.91;5069035;28;20032;-75
2023/03/05 08:25:52;;;;;;;6.95;3.30;;;;;;;3.80;100.00;101849.78;5070495;28;20036;-75
2023/03/05 08:28:18;;;;;;;8.30;3.70;;;;;;;3.81;100.00;101846.34;5070667;28;20020;-75
2023/03/05 08:30:45;;;;;;;6.60;3.60;;;;;;;3.94;100.00;101843.19;5072166;28;20040;-75
2023/03/05 08:33:11;;;;;;;6.55;3.20;;;;;;;3.99;100.00;101831.25;5072189;28;20100;-75
2023/03/05 08:35:37;;;;;;;7.28;2.72;;;;;;;4.09;100.00;101831.44;5069539;28;20024;-74
2023/03/05 08:38:03;;;;;;;7.03;3.15;;;;;;;4.24;100.00;101821.38;5068032;28;20032;-77
2023/03/05 08:40:28;;;;;;;6.25;2.67;;;;;;;4.50;100.00;101828.72;5069476;28;20040;-76
2023/03/05 08:42:54;;;;;;;6.50;2.38;;;;;;;4.58;100.00;101837.47;5071074;28;20057;-72
2023/03/05 08:45:19;;;;;;;6.80;2.90;;;;;;;4.49;100.00;101812.34;5072256;28;20025;-76
2023/03/05 08:47:44;;;;;;;7.43;2.78;;;;;;;4.71;100.00;101829.09;5065845;28;20035;-76
2023/03/05 08:50:10;;;;;;;5.25;2.22;;;;;;;4.67;100.00;101822.97;5070678;28;20024;-76
2023/03/05 08:52:36;;;;;;;3.95;2.38;;;;;;;4.64;100.00;101822.06;5071649;28;20027;-76
2023/03/05 08:55:01;;;;;;;4.07;2.20;;;;;;;4.56;100.00;101815.91;5071543;28;20459;-76
2023/03/05 08:57:26;;;;;;;4.50;2.10;;;;;;;4.59;100.00;101822.00;5070797;28;20028;-77
2023/03/05 08:59:52;;;;;;;3.20;2.10;;;;;;;4.54;100.00;101813.28;5071572;28;20043;-76
2023/03/05 09:02:17;;;;;;;8.30;2.25;;;;;;;4.49;100.00;101801.16;5069998;28;20040;-76
2023/03/05 09:04:45;;;;;;;2.70;1.77;;;;;;;4.58;100.00;101815.09;5070140;28;20381;-76
2023/03/05 09:07:11;;;;;;;6.60;2.25;;;;;;;4.65;100.00;101808.31;5070234;28;20035;-76
2023/03/05 09:09:37;;;;;;;2.42;1.60;;;;;;;4.80;100.00;101808.53;5071037;28;20020;-76
2023/03/05 09:12:03;;;;;;;2.70;1.58;;;;;;;4.92;100.00;101803.56;5070890;28;20033;-76
2023/03/05 09:14:28;;;;;;;4.55;2.10;;;;;;;5.08;100.00;101803.81;5071321;28;20028;-76
2023/03/05 09:16:57;;;;;;;6.38;1.70;;;;;;;5.09;100.00;101805.53;5069374;28;20468;-76
2023/03/05 09:19:23;;;;;;;5.90;1.58;;;;;;;5.12;100.00;101795.25;5067591;28;20480;-76
2023/03/05 09:21:49;;;;;;;4.50;1.92;;;;;;;5.27;100.00;101795.47;5069543;28;20371;-76
2023/03/05 09:24:14;;;;;;;3.95;2.03;;;;;;;5.43;100.00;101795.66;5070465;28;20025;-76
2023/03/05 09:26:41;;;;;;;2.65;2.10;;;;;;;5.39;100.00;101795.63;5068277;28;20048;-76
2023/03/05 09:29:07;;;;;;;3.13;2.13;;;;;;;5.31;100.00;101793.78;5071439;28;20487;-77
2023/03/05 09:31:36;;;;;;;3.35;2.30;;;;;;;5.39;100.00;101790.47;5070574;28;20422;-76
2023/03/05 09:34:01;;;;;;;4.07;1.80;;;;;;;5.49;100.00;101772.47;5073958;28;20095;-77
2023/03/05 09:36:28;;;;;;;4.78;2.20;;;;;;;5.59;100.00;101790.72;5073625;28;20028;-76
2023/03/05 09:38:54;;;;;;;5.07;2.10;;;;;;;5.61;100.00;101781.22;5073760;28;20047;-76
2023/03/05 09:41:25;;;;;;;4.88;2.20;;;;;;;5.67;99.36;101779.59;5071410;28;20117;-76
2023/03/05 09:44:40;;;;;;;4.45;2.25;;;;;;;5.82;100.00;101778.03;5074914;28;20039;-76
2023/03/05 09:47:11;;;;;;;6.93;2.90;;;;;;;5.94;99.11;101776.47;5068248;28;20036;-76
2023/03/05 09:49:51;;;;;;;4.55;2.80;;;;;;;6.09;98.62;101774.91;5074117;28;20087;-76
2023/03/05 09:52:20;;;;;;;5.25;2.70;;;;;;;6.13;96.11;101773.22;5068715;28;20123;-75
2023/03/05 09:54:51;;;;;;;4.03;2.70;;;;;;;6.05;97.70;101754.16;5066642;28;20472;-75
2023/03/05 09:57:22;;;;;;;5.40;2.72;;;;;;;6.12;95.76;101771.47;5069114;28;20487;-76
2023/03/05 09:59:56;;;;;;;4.65;3.08;;;;;;;6.09;93.63;101768.84;5069559;28;20048;-76
2023/03/05 10:02:26;;;;;;;5.53;2.85;;;;;;;6.14;93.29;101768.88;5070070;28;20036;-76
2023/03/05 10:05:21;;;;;;;6.03;2.95;;;;;;;6.17;92.33;101754.25;5060862;28;20487;-76
2023/03/05 10:07:59;;;;;;;5.28;2.90;;;;;;;6.04;92.69;101755.00;5054923;28;20071;-75
2023/03/05 10:10:35;;;;;;;5.10;3.30;;;;;;;5.90;93.90;101764.31;5074790;28;20028;-75
2023/03/05 10:13:10;;;;;;;5.53;2.70;;;;;;;5.86;93.08;101764.28;5073879;28;20028;-76
2023/03/05 10:15:50;;;;;;;3.45;2.22;;;;;;;5.83;91.54;101763.38;5073610;28;20491;-78
2023/03/05 10:18:25;;;;;;;6.90;2.55;;;;;;;5.79;92.79;101759.03;5063593;28;20032;-76
2023/03/05 10:20:50;;;;;;;4.95;2.80;;;;;;;5.71;93.97;101746.00;5073502;28;20059;-76
2023/03/05 10:23:28;;;;;;;4.82;2.90;;;;;;;5.75;94.09;101745.16;5074449;28;20074;-76
2023/03/05 10:26:01;;;;;;;5.05;2.72;;;;;;;5.82;94.00;101712.44;5071247;28;20122;-76
2023/03/05 10:28:53;;;;;;;5.20;3.17;;;;;;;6.17;94.26;101736.13;5071681;28;20025;-76
2023/03/05 10:31:27;;;;;;;5.57;2.85;;;;;;;6.17;90.83;101732.66;5074171;28;20020;-76
2023/03/05 10:34:13;;;;;;;5.22;3.00;;;;;;;6.04;91.80;101729.97;5072159;28;20036;-76
2023/03/05 10:37:01;;;;;;;5.65;3.10;;;;;;;5.85;91.95;101723.72;5072297;28;20032;-76
2023/03/05 10:39:41;;;;;;;6.03;2.90;;;;;;;5.70;92.48;101728.75;5073183;28;20052;-76
2023/03/05 10:42:27;;;;;;;6.10;3.05;;;;;;;5.45;92.67;101704.31;5073322;28;20039;-76
2023/03/05 10:44:58;;;;;;;6.43;3.22;;;;;;;5.31;94.16;101721.38;5072414;28;20036;-75
2023/03/05 10:47:29;;;;;;;6.28;3.22;;;;;;;5.08;96.66;101736.59;5063280;28;20025;-76
2023/03/05 10:49:56;;;;;;;5.05;2.08;;;;;;;4.46;100.00;101742.59;5072689;28;20024;-76
2023/03/05 10:52:39;;;;;;;4.25;1.98;;;;;;;3.95;100.00;101740.84;5072992;28;20028;-76
2023/03/05 10:55:22;;;;;;;3.20;1.83;;;;;;;3.61;100.00;101726.47;5068019;28;20028;-77
2023/03/05 10:57:48;;;;;;;4.25;1.70;;;;;;;3.72;100.00;101735.25;5069896;28;20514;-78
2023/03/05 11:00:21;;;;;;;3.72;1.70;;;;;;;3.86;100.00;101726.09;5072213;28;20041;-77
2023/03/05 11:03:00;;;;;;;2.43;1.73;;;;;;;4.17;100.00;101731.78;5069676;28;20043;-77
2023/03/05 11:05:37;;;;;;;2.63;1.40;;;;;;;4.41;100.00;101716.72;5073218;28;20472;-76
2023/03/05 11:08:18;;;;;;;2.53;1.38;;;;;;;4.66;100.00;101709.31;5072744;28;20128;-76
2023/03/05 11:10:43;;;;;;;4.00;1.17;;;;;;;4.85;100.00;101703.56;5071779;28;20036;-77
2023/03/05 11:13:29;;;;;;;4.75;1.33;;;;;;;5.04;100.00;101694.34;5071684;28;20047;-76
2023/03/05 11:15:59;;;;;;;2.65;1.25;;;;;;;5.24;100.00;101694.59;5068555;28;20076;-77
2023/03/05 11:18:25;;;;;;;3.95;1.23;;;;;;;5.06;100.00;101658.19;5067654;28;20078;-76
2023/03/05 11:20:50;;;;;;;4.80;1.60;;;;;;;5.29;100.00;101685.16;5066154;28;20045;-77
2023/03/05 11:23:24;;;;;;;2.58;1.40;;;;;;;5.52;100.00;101692.31;5068175;28;20041;-76